sensor_id;sensor_type;location;lat;lon;timestamp;pressure;altitude;pressure_sealevel;temperature;humidity
33697;BME280;20031;43.416;23.232;2022-12-07T00:00:28;100195.56;;;5.62;98.45
33697;BME280;20031;43.416;23.232;2022-12-07T00:02:53;100201.69;;;5.61;98.96
33697;BME280;20031;43.416;23.232;2022-12-07T00:05:18;100191.34;;;5.61;98.79
33697;BME280;20031;43.416;23.232;2022-12-07T00:07:44;100188.88;;;5.60;98.28
33697;BME280;20031;43.416;23.232;2022-12-07T00:10:09;100190.53;;;5.61;98.31
33697;BME280;20031;43.416;23.232;2022-12-07T00:12:35;100198.16;;;5.62;98.86
33697;BME280;20031;43.416;23.232;2022-12-07T00:15:00;100192.28;;;5.60;98.95
33697;BME280;20031;43.416;23.232;2022-12-07T00:17:25;100183.84;;;5.58;98.38
33697;BME280;20031;43.416;23.232;2022-12-07T00:19:51;100178.81;;;5.57;98.65
33697;BME280;20031;43.416;23.232;2022-12-07T00:22:16;100175.75;;;5.52;98.78
33697;BME280;20031;43.416;23.232;2022-12-07T00:24:42;100175.75;;;5.52;98.29
33697;BME280;20031;43.416;23.232;2022-12-07T00:27:07;100180.81;;;5.54;98.73
33697;BME280;20031;43.416;23.232;2022-12-07T00:29:32;100174.69;;;5.55;99.02
33697;BME280;20031;43.416;23.232;2022-12-07T00:31:58;100170.34;;;5.55;98.78
33697;BME280;20031;43.416;23.232;2022-12-07T00:34:23;100165.19;;;5.55;98.90
33697;BME280;20031;43.416;23.232;2022-12-07T00:36:49;100176.34;;;5.56;98.84
33697;BME280;20031;43.416;23.232;2022-12-07T00:39:15;100165.06;;;5.56;98.81
33697;BME280;20031;43.416;23.232;2022-12-07T00:41:41;100167.63;;;5.56;98.78
33697;BME280;20031;43.416;23.232;2022-12-07T00:44:06;100166.69;;;5.57;98.40
33697;BME280;20031;43.416;23.232;2022-12-07T00:46:32;100178.94;;;5.56;98.56
33697;BME280;20031;43.416;23.232;2022-12-07T00:48:57;100181.50;;;5.56;98.30
33697;BME280;20031;43.416;23.232;2022-12-07T00:51:24;100201.34;;;5.55;98.03
33697;BME280;20031;43.416;23.232;2022-12-07T00:53:50;100200.66;;;5.53;98.56
33697;BME280;20031;43.416;23.232;2022-12-07T00:56:18;100206.63;;;5.54;97.96
33697;BME280;20031;43.416;23.232;2022-12-07T00:58:49;100205.00;;;5.53;98.25
33697;BME280;20031;43.416;23.232;2022-12-07T01:01:15;100185.97;;;5.54;98.59
33697;BME280;20031;43.416;23.232;2022-12-07T01:03:40;100185.03;;;5.55;97.98
33697;BME280;20031;43.416;23.232;2022-12-07T01:06:05;100185.03;;;5.55;98.33
33697;BME280;20031;43.416;23.232;2022-12-07T01:08:31;100192.09;;;5.53;98.37
33697;BME280;20031;43.416;23.232;2022-12-07T01:11:02;100185.97;;;5.54;98.24
33697;BME280;20031;43.416;23.232;2022-12-07T01:13:28;100185.03;;;5.55;98.41
33697;BME280;20031;43.416;23.232;2022-12-07T01:15:59;100185.03;;;5.55;98.13
33697;BME280;20031;43.416;23.232;2022-12-07T01:18:27;100186.69;;;5.56;98.03
33697;BME280;20031;43.416;23.232;2022-12-07T01:21:03;100182.31;;;5.56;98.03
33697;BME280;20031;43.416;23.232;2022-12-07T01:23:29;100186.69;;;5.56;98.26
33697;BME280;20031;43.416;23.232;2022-12-07T01:25:59;100185.03;;;5.55;97.74
33697;BME280;20031;43.416;23.232;2022-12-07T01:28:25;100183.50;;;5.52;97.54
33697;BME280;20031;43.416;23.232;2022-12-07T01:30:57;100186.22;;;5.51;97.74
33697;BME280;20031;43.416;23.232;2022-12-07T01:33:22;100182.81;;;5.50;97.74
33697;BME280;20031;43.416;23.232;2022-12-07T01:35:48;100172.50;;;5.50;97.64
33697;BME280;20031;43.416;23.232;2022-12-07T01:38:13;100152.53;;;5.52;98.28
33697;BME280;20031;43.416;23.232;2022-12-07T01:40:39;100149.13;;;5.52;97.79
33697;BME280;20031;43.416;23.232;2022-12-07T01:43:15;100161.09;;;5.53;98.11
33697;BME280;20031;43.416;23.232;2022-12-07T01:45:41;100169.09;;;5.50;97.49
33697;BME280;20031;43.416;23.232;2022-12-07T01:48:09;100164.06;;;5.48;97.45
33697;BME280;20031;43.416;23.232;2022-12-07T01:50:37;100165.69;;;5.49;97.76
33697;BME280;20031;43.416;23.232;2022-12-07T01:53:05;100155.22;;;5.51;97.88
33697;BME280;20031;43.416;23.232;2022-12-07T01:55:35;100165.56;;;5.51;98.05
33697;BME280;20031;43.416;23.232;2022-12-07T01:58:02;100161.09;;;5.53;98.30
33697;BME280;20031;43.416;23.232;2022-12-07T02:00:28;100159.34;;;5.53;98.14
33697;BME280;20031;43.416;23.232;2022-12-07T02:02:58;100149.81;;;5.54;97.70
33697;BME280;20031;43.416;23.232;2022-12-07T02:05:27;100145.88;;;5.50;97.45
33697;BME280;20031;43.416;23.232;2022-12-07T02:07:55;100135.53;;;5.50;97.70
33697;BME280;20031;43.416;23.232;2022-12-07T02:10:27;100141.75;;;5.47;98.12
33697;BME280;20031;43.416;23.232;2022-12-07T02:15:55;100133.06;;;5.48;98.19
33697;BME280;20031;43.416;23.232;2022-12-07T02:32:24;100134.69;;;5.49;97.75
33697;BME280;20031;43.416;23.232;2022-12-07T02:40:18;100106.28;;;5.49;98.05
33697;BME280;20031;43.416;23.232;2022-12-07T02:42:50;100106.16;;;5.51;98.01
33697;BME280;20031;43.416;23.232;2022-12-07T02:45:21;100102.50;;;5.53;98.35
33697;BME280;20031;43.416;23.232;2022-12-07T02:47:51;100110.25;;;5.53;98.12
33697;BME280;20031;43.416;23.232;2022-12-07T02:50:20;100108.63;;;5.52;98.04
33697;BME280;20031;43.416;23.232;2022-12-07T02:52:46;100096.66;;;5.51;97.39
33697;BME280;20031;43.416;23.232;2022-12-07T02:55:12;100097.22;;;5.55;98.00
33697;BME280;20031;43.416;23.232;2022-12-07T02:57:43;100094.63;;;5.55;98.15
33697;BME280;20031;43.416;23.232;2022-12-07T03:00:14;100099.94;;;5.53;97.59
33697;BME280;20031;43.416;23.232;2022-12-07T03:13:28;100089.81;;;5.61;97.72
33697;BME280;20031;43.416;23.232;2022-12-07T03:18:29;100101.88;;;5.60;97.35
33697;BME280;20031;43.416;23.232;2022-12-07T03:20:58;100101.06;;;5.60;97.61
33697;BME280;20031;43.416;23.232;2022-12-07T03:23:27;100096.59;;;5.62;98.31
33697;BME280;20031;43.416;23.232;2022-12-07T03:25:58;100089.53;;;5.64;97.65
33697;BME280;20031;43.416;23.232;2022-12-07T03:28:30;100086.97;;;5.64;97.53
33697;BME280;20031;43.416;23.232;2022-12-07T03:31:08;100083.28;;;5.66;97.80
33697;BME280;20031;43.416;23.232;2022-12-07T03:33:55;100079.91;;;5.66;98.22
33697;BME280;20031;43.416;23.232;2022-12-07T03:36:40;100072.94;;;5.66;98.22
33697;BME280;20031;43.416;23.232;2022-12-07T03:41:43;100069.56;;;5.66;97.37
33697;BME280;20031;43.416;23.232;2022-12-07T03:44:08;100075.53;;;5.66;98.08
33697;BME280;20031;43.416;23.232;2022-12-07T03:49:40;100102.34;;;5.65;97.59
33697;BME280;20031;43.416;23.232;2022-12-07T03:57:33;100084.25;;;5.65;97.71
33697;BME280;20031;43.416;23.232;2022-12-07T04:00:01;100080.69;;;5.66;97.97
33697;BME280;20031;43.416;23.232;2022-12-07T04:02:29;100084.13;;;5.67;97.42
33697;BME280;20031;43.416;23.232;2022-12-07T04:04:55;100086.72;;;5.67;96.77
33697;BME280;20031;43.416;23.232;2022-12-07T04:07:21;100076.25;;;5.68;97.51
33697;BME280;20031;43.416;23.232;2022-12-07T04:09:46;100087.38;;;5.69;97.82
33697;BME280;20031;43.416;23.232;2022-12-07T04:12:12;100083.06;;;5.69;98.06
33697;BME280;20031;43.416;23.232;2022-12-07T04:14:37;100071.88;;;5.69;98.11
33697;BME280;20031;43.416;23.232;2022-12-07T04:17:03;100073.66;;;5.68;98.03
33697;BME280;20031;43.416;23.232;2022-12-07T04:19:31;100067.56;;;5.69;97.80
33697;BME280;20031;43.416;23.232;2022-12-07T04:22:00;100058.97;;;5.69;98.06
33697;BME280;20031;43.416;23.232;2022-12-07T04:24:26;100057.34;;;5.68;97.80
33697;BME280;20031;43.416;23.232;2022-12-07T04:26:52;100054.88;;;5.66;97.66
33697;BME280;20031;43.416;23.232;2022-12-07T04:29:18;100043.19;;;5.62;97.50
33697;BME280;20031;43.416;23.232;2022-12-07T04:31:44;100045.06;;;5.60;97.42
33697;BME280;20031;43.416;23.232;2022-12-07T04:34:10;100045.19;;;5.59;97.79
33697;BME280;20031;43.416;23.232;2022-12-07T04:36:36;100043.44;;;5.59;97.42
33697;BME280;20031;43.416;23.232;2022-12-07T04:39:03;100038.28;;;5.59;97.49
33697;BME280;20031;43.416;23.232;2022-12-07T04:41:29;100045.31;;;5.57;97.64
33697;BME280;20031;43.416;23.232;2022-12-07T04:43:58;100035.81;;;5.58;97.98
33697;BME280;20031;43.416;23.232;2022-12-07T04:46:24;100040.41;;;5.55;97.90
33697;BME280;20031;43.416;23.232;2022-12-07T04:48:51;100034.31;;;5.56;98.10
33697;BME280;20031;43.416;23.232;2022-12-07T04:51:23;100031.97;;;5.53;97.61
33697;BME280;20031;43.416;23.232;2022-12-07T04:53:49;100036.44;;;5.51;97.89
33697;BME280;20031;43.416;23.232;2022-12-07T04:56:15;100041.47;;;5.52;97.86
33697;BME280;20031;43.416;23.232;2022-12-07T04:58:42;100037.16;;;5.53;97.61
33697;BME280;20031;43.416;23.232;2022-12-07T05:01:09;100035.50;;;5.52;97.58
33697;BME280;20031;43.416;23.232;2022-12-07T05:03:38;100036.44;;;5.51;97.41
33697;BME280;20031;43.416;23.232;2022-12-07T05:06:04;100037.28;;;5.51;97.87
33697;BME280;20031;43.416;23.232;2022-12-07T05:08:32;100044.19;;;5.51;97.98
33697;BME280;20031;43.416;23.232;2022-12-07T05:10:57;100044.06;;;5.52;97.76
33697;BME280;20031;43.416;23.232;2022-12-07T05:13:23;100043.25;;;5.52;97.98
33697;BME280;20031;43.416;23.232;2022-12-07T05:15:49;100039.00;;;5.51;97.58
33697;BME280;20031;43.416;23.232;2022-12-07T05:18:14;100032.09;;;5.51;98.21
33697;BME280;20031;43.416;23.232;2022-12-07T05:20:41;100028.69;;;5.51;98.11
33697;BME280;20031;43.416;23.232;2022-12-07T05:23:06;100029.53;;;5.51;97.59
33697;BME280;20031;43.416;23.232;2022-12-07T05:25:32;100025.28;;;5.50;97.52
33697;BME280;20031;43.416;23.232;2022-12-07T05:27:57;100029.53;;;5.51;98.12
33697;BME280;20031;43.416;23.232;2022-12-07T05:30:23;100027.63;;;5.53;98.24
33697;BME280;20031;43.416;23.232;2022-12-07T05:32:49;100026.81;;;5.53;97.53
33697;BME280;20031;43.416;23.232;2022-12-07T05:35:15;100027.75;;;5.52;98.08
33697;BME280;20031;43.416;23.232;2022-12-07T05:37:40;100028.56;;;5.52;97.88
33697;BME280;20031;43.416;23.232;2022-12-07T05:40:06;100029.41;;;5.53;97.36
33697;BME280;20031;43.416;23.232;2022-12-07T05:42:32;100031.00;;;5.54;98.19
33697;BME280;20031;43.416;23.232;2022-12-07T05:44:58;100032.91;;;5.52;97.83
33697;BME280;20031;43.416;23.232;2022-12-07T05:47:23;100034.44;;;5.54;98.04
33697;BME280;20031;43.416;23.232;2022-12-07T05:49:48;100041.22;;;5.55;97.79
33697;BME280;20031;43.416;23.232;2022-12-07T05:52:14;100043.91;;;5.54;97.96
33697;BME280;20031;43.416;23.232;2022-12-07T05:54:40;100042.19;;;5.54;97.41
33697;BME280;20031;43.416;23.232;2022-12-07T05:57:05;100045.56;;;5.55;97.86
33697;BME280;20031;43.416;23.232;2022-12-07T05:59:30;100042.72;;;5.57;97.82
33697;BME280;20031;43.416;23.232;2022-12-07T06:04:26;100046.69;;;5.61;97.63
33697;BME280;20031;43.416;23.232;2022-12-07T06:06:52;100043.19;;;5.62;97.88
33697;BME280;20031;43.416;23.232;2022-12-07T06:09:19;100044.00;;;5.63;98.10
33697;BME280;20031;43.416;23.232;2022-12-07T06:11:45;100048.09;;;5.65;97.66
33697;BME280;20031;43.416;23.232;2022-12-07T06:14:30;100040.34;;;5.65;97.63
33697;BME280;20031;43.416;23.232;2022-12-07T06:16:55;100052.19;;;5.68;97.76
33697;BME280;20031;43.416;23.232;2022-12-07T06:19:21;100039.38;;;5.66;97.68
33697;BME280;20031;43.416;23.232;2022-12-07T06:21:46;100047.03;;;5.68;97.83
33697;BME280;20031;43.416;23.232;2022-12-07T06:24:13;100045.94;;;5.70;98.21
33697;BME280;20031;43.416;23.232;2022-12-07T06:26:39;100048.63;;;5.69;97.78
33697;BME280;20031;43.416;23.232;2022-12-07T06:29:05;100041.84;;;5.68;97.46
33697;BME280;20031;43.416;23.232;2022-12-07T06:31:30;100044.31;;;5.69;97.99
33697;BME280;20031;43.416;23.232;2022-12-07T06:34:00;100045.78;;;5.72;97.95
33697;BME280;20031;43.416;23.232;2022-12-07T06:36:26;100049.94;;;5.74;97.94
33697;BME280;20031;43.416;23.232;2022-12-07T06:38:51;100049.66;;;5.77;97.59
33697;BME280;20031;43.416;23.232;2022-12-07T06:41:17;100046.28;;;5.77;97.91
33697;BME280;20031;43.416;23.232;2022-12-07T06:43:43;100053.91;;;5.78;97.37
33697;BME280;20031;43.416;23.232;2022-12-07T06:46:08;100055.28;;;5.82;97.72
33697;BME280;20031;43.416;23.232;2022-12-07T06:48:33;100057.75;;;5.84;97.93
33697;BME280;20031;43.416;23.232;2022-12-07T06:50:59;100052.44;;;5.85;97.48
33697;BME280;20031;43.416;23.232;2022-12-07T06:53:25;100059.66;;;5.91;98.19
33697;BME280;20031;43.416;23.232;2022-12-07T06:55:50;100060.34;;;5.93;97.54
33697;BME280;20031;43.416;23.232;2022-12-07T06:58:16;100053.16;;;5.97;97.82
33697;BME280;20031;43.416;23.232;2022-12-07T07:00:43;100045.84;;;6.02;97.97
33697;BME280;20031;43.416;23.232;2022-12-07T07:03:08;100047.06;;;6.07;97.76
33697;BME280;20031;43.416;23.232;2022-12-07T07:05:34;100050.38;;;6.09;97.47
33697;BME280;20031;43.416;23.232;2022-12-07T07:08:00;100046.56;;;6.13;97.98
33697;BME280;20031;43.416;23.232;2022-12-07T07:10:25;100043.69;;;6.16;97.57
33697;BME280;20031;43.416;23.232;2022-12-07T07:12:51;100047.41;;;6.23;98.12
33697;BME280;20031;43.416;23.232;2022-12-07T07:15:16;100043.47;;;6.28;97.74
33697;BME280;20031;43.416;23.232;2022-12-07T07:17:42;100047.31;;;6.34;97.55
33697;BME280;20031;43.416;23.232;2022-12-07T07:20:08;100054.81;;;6.37;97.71
33697;BME280;20031;43.416;23.232;2022-12-07T07:22:34;100056.56;;;6.36;97.73
33697;BME280;20031;43.416;23.232;2022-12-07T07:24:59;100051.13;;;6.39;97.60
33697;BME280;20031;43.416;23.232;2022-12-07T07:27:25;100046.25;;;6.46;97.71
33697;BME280;20031;43.416;23.232;2022-12-07T07:29:50;100047.06;;;6.46;97.66
33697;BME280;20031;43.416;23.232;2022-12-07T07:32:15;100049.66;;;6.46;97.01
33697;BME280;20031;43.416;23.232;2022-12-07T07:34:41;100050.91;;;6.52;97.56
33697;BME280;20031;43.416;23.232;2022-12-07T07:37:06;100048.72;;;6.57;97.79
33697;BME280;20031;43.416;23.232;2022-12-07T07:39:32;100047.22;;;6.54;97.25
33697;BME280;20031;43.416;23.232;2022-12-07T07:41:57;100039.44;;;6.54;96.99
33697;BME280;20031;43.416;23.232;2022-12-07T07:44:23;100037.28;;;6.59;96.90
33697;BME280;20031;43.416;23.232;2022-12-07T07:46:48;100037.69;;;6.64;96.81
33697;BME280;20031;43.416;23.232;2022-12-07T07:49:13;100041.13;;;6.64;96.93
33697;BME280;20031;43.416;23.232;2022-12-07T07:51:39;100045.03;;;6.68;96.72
33697;BME280;20031;43.416;23.232;2022-12-07T07:54:04;100051.72;;;6.71;96.41
33697;BME280;20031;43.416;23.232;2022-12-07T07:56:30;100046.28;;;6.64;95.78
33697;BME280;20031;43.416;23.232;2022-12-07T07:58:55;100045.47;;;6.64;95.98
33697;BME280;20031;43.416;23.232;2022-12-07T08:01:21;100051.97;;;6.58;95.55
33697;BME280;20031;43.416;23.232;2022-12-07T08:03:46;100066.28;;;6.53;95.27
33697;BME280;20031;43.416;23.232;2022-12-07T08:06:12;100060.97;;;6.55;95.55
33697;BME280;20031;43.416;23.232;2022-12-07T08:08:38;100051.47;;;6.64;95.92
33697;BME280;20031;43.416;23.232;2022-12-07T08:11:07;100053.25;;;6.73;96.15
33697;BME280;20031;43.416;23.232;2022-12-07T08:13:33;100041.41;;;6.80;95.70
33697;BME280;20031;43.416;23.232;2022-12-07T08:15:58;100040.59;;;6.89;95.56
33697;BME280;20031;43.416;23.232;2022-12-07T08:18:28;100032.13;;;6.97;95.13
33697;BME280;20031;43.416;23.232;2022-12-07T08:20:59;100028.31;;;7.01;94.95
33697;BME280;20031;43.416;23.232;2022-12-07T08:23:26;100030.22;;;7.08;95.23
33697;BME280;20031;43.416;23.232;2022-12-07T08:25:51;100041.69;;;7.06;93.89
33697;BME280;20031;43.416;23.232;2022-12-07T08:28:17;100037.31;;;7.06;94.47
33697;BME280;20031;43.416;23.232;2022-12-07T08:30:42;100033.50;;;7.10;93.74
33697;BME280;20031;43.416;23.232;2022-12-07T08:33:09;100032.41;;;7.12;93.66
33697;BME280;20031;43.416;23.232;2022-12-07T08:35:35;100031.03;;;7.18;93.97
33697;BME280;20031;43.416;23.232;2022-12-07T08:38:01;100031.97;;;7.26;93.63
33697;BME280;20031;43.416;23.232;2022-12-07T08:40:28;100029.94;;;7.30;92.92
33697;BME280;20031;43.416;23.232;2022-12-07T08:42:53;100023.25;;;7.27;93.19
33697;BME280;20031;43.416;23.232;2022-12-07T08:45:20;100026.78;;;7.26;92.39
33697;BME280;20031;43.416;23.232;2022-12-07T08:48:09;100020.25;;;7.32;93.08
33697;BME280;20031;43.416;23.232;2022-12-07T08:50:37;100024.19;;;7.36;92.88
33697;BME280;20031;43.416;23.232;2022-12-07T08:53:03;100022.97;;;7.40;92.13
33697;BME280;20031;43.416;23.232;2022-12-07T08:55:31;100016.28;;;7.47;92.01
33697;BME280;20031;43.416;23.232;2022-12-07T08:57:59;100011.06;;;7.56;92.03
33697;BME280;20031;43.416;23.232;2022-12-07T09:00:26;100009.41;;;7.64;91.47
33697;BME280;20031;43.416;23.232;2022-12-07T09:02:51;100012.41;;;7.69;91.36
33697;BME280;20031;43.416;23.232;2022-12-07T09:05:17;100010.91;;;7.67;90.88
33697;BME280;20031;43.416;23.232;2022-12-07T09:07:44;100021.25;;;7.67;91.28
33697;BME280;20031;43.416;23.232;2022-12-07T09:10:11;100006.38;;;7.69;90.74
33697;BME280;20031;43.416;23.232;2022-12-07T09:12:37;100004.72;;;7.77;90.62
33697;BME280;20031;43.416;23.232;2022-12-07T09:15:03;100001.44;;;7.85;90.92
33697;BME280;20031;43.416;23.232;2022-12-07T09:17:32;100002.25;;;7.85;90.01
33697;BME280;20031;43.416;23.232;2022-12-07T09:19:58;99999.94;;;7.82;89.34
33697;BME280;20031;43.416;23.232;2022-12-07T09:22:28;99988.63;;;7.83;89.38
33697;BME280;20031;43.416;23.232;2022-12-07T09:24:54;99988.03;;;7.89;89.19
33697;BME280;20031;43.416;23.232;2022-12-07T09:27:19;99991.84;;;7.95;89.14
33697;BME280;20031;43.416;23.232;2022-12-07T09:29:45;99979.28;;;7.90;88.79
33697;BME280;20031;43.416;23.232;2022-12-07T09:32:10;99972.84;;;7.94;88.67
33697;BME280;20031;43.416;23.232;2022-12-07T09:34:35;99971.59;;;7.98;87.82
33697;BME280;20031;43.416;23.232;2022-12-07T09:37:01;99975.00;;;7.99;88.39
33697;BME280;20031;43.416;23.232;2022-12-07T09:39:28;99974.50;;;7.95;87.87
33697;BME280;20031;43.416;23.232;2022-12-07T09:41:54;99971.63;;;7.89;87.23
33697;BME280;20031;43.416;23.232;2022-12-07T09:44:25;99971.72;;;7.79;87.38
33697;BME280;20031;43.416;23.232;2022-12-07T09:46:52;99975.81;;;7.72;87.45
33697;BME280;20031;43.416;23.232;2022-12-07T09:49:20;99963.16;;;7.69;87.92
33697;BME280;20031;43.416;23.232;2022-12-07T09:51:47;99963.81;;;7.71;88.02
33697;BME280;20031;43.416;23.232;2022-12-07T09:54:22;99957.97;;;7.69;87.56
33697;BME280;20031;43.416;23.232;2022-12-07T09:56:48;99945.66;;;7.71;87.50
33697;BME280;20031;43.416;23.232;2022-12-07T09:59:16;99950.34;;;7.68;87.68
33697;BME280;20031;43.416;23.232;2022-12-07T10:01:47;99948.19;;;7.63;87.52
33697;BME280;20031;43.416;23.232;2022-12-07T10:04:17;99944.53;;;7.57;87.76
33697;BME280;20031;43.416;23.232;2022-12-07T10:06:43;99949.84;;;7.55;87.83
33697;BME280;20031;43.416;23.232;2022-12-07T10:09:13;99947.00;;;7.49;87.69
33697;BME280;20031;43.416;23.232;2022-12-07T10:14:32;99945.78;;;7.43;87.76
33697;BME280;20031;43.416;23.232;2022-12-07T10:16:58;99945.63;;;7.45;88.23
33697;BME280;20031;43.416;23.232;2022-12-07T10:19:30;99933.66;;;7.44;88.22
33697;BME280;20031;43.416;23.232;2022-12-07T10:22:00;99931.06;;;7.44;88.26
33697;BME280;20031;43.416;23.232;2022-12-07T10:24:25;99925.75;;;7.45;88.12
33697;BME280;20031;43.416;23.232;2022-12-07T10:26:52;99920.81;;;7.52;88.55
33697;BME280;20031;43.416;23.232;2022-12-07T10:34:35;99909.63;;;7.51;88.30
33697;BME280;20031;43.416;23.232;2022-12-07T10:42:21;99912.38;;;7.50;88.90
33697;BME280;20031;43.416;23.232;2022-12-07T10:44:49;99907.47;;;7.47;88.60
33697;BME280;20031;43.416;23.232;2022-12-07T10:47:36;99902.56;;;7.44;88.96
33697;BME280;20031;43.416;23.232;2022-12-07T10:53:28;99900.50;;;7.47;88.88
33697;BME280;20031;43.416;23.232;2022-12-07T10:56:09;99887.56;;;7.47;88.55
33697;BME280;20031;43.416;23.232;2022-12-07T11:01:31;99884.53;;;7.52;88.62
33697;BME280;20031;43.416;23.232;2022-12-07T11:12:10;99880.44;;;7.49;89.17
33697;BME280;20031;43.416;23.232;2022-12-07T11:15:01;99877.34;;;7.46;88.83
33697;BME280;20031;43.416;23.232;2022-12-07T11:17:45;99865.19;;;7.46;88.95
33697;BME280;20031;43.416;23.232;2022-12-07T11:37:21;99833.69;;;7.51;88.66
33697;BME280;20031;43.416;23.232;2022-12-07T11:39:55;99824.94;;;7.52;88.54
33697;BME280;20031;43.416;23.232;2022-12-07T11:42:33;99817.41;;;7.58;89.47
33697;BME280;20031;43.416;23.232;2022-12-07T11:45:04;99815.34;;;7.61;88.75
33697;BME280;20031;43.416;23.232;2022-12-07T11:47:45;99810.53;;;7.66;89.21
33697;BME280;20031;43.416;23.232;2022-12-07T12:03:44;99830.84;;;7.71;88.97
33697;BME280;20031;43.416;23.232;2022-12-07T12:06:10;99828.97;;;7.63;88.60
33697;BME280;20031;43.416;23.232;2022-12-07T12:09:03;99827.19;;;7.64;88.54
33697;BME280;20031;43.416;23.232;2022-12-07T12:14:29;99825.03;;;7.60;88.78
33697;BME280;20031;43.416;23.232;2022-12-07T12:20:01;99826.28;;;7.56;88.46
33697;BME280;20031;43.416;23.232;2022-12-07T12:22:41;99814.97;;;7.57;88.51
33697;BME280;20031;43.416;23.232;2022-12-07T12:27:46;99825.34;;;7.57;88.48
33697;BME280;20031;43.416;23.232;2022-12-07T12:30:35;99823.19;;;7.52;88.70
33697;BME280;20031;43.416;23.232;2022-12-07T12:33:06;99817.31;;;7.50;88.73
33697;BME280;20031;43.416;23.232;2022-12-07T12:35:38;99823.19;;;7.52;88.83
33697;BME280;20031;43.416;23.232;2022-12-07T12:38:47;99823.97;;;7.53;89.13
33697;BME280;20031;43.416;23.232;2022-12-07T12:46:56;99811.19;;;7.51;88.84
33697;BME280;20031;43.416;23.232;2022-12-07T12:51:54;99817.75;;;7.46;89.05
33697;BME280;20031;43.416;23.232;2022-12-07T12:54:36;99820.63;;;7.43;88.72
33697;BME280;20031;43.416;23.232;2022-12-07T13:04:56;99830.75;;;7.36;89.42
33697;BME280;20031;43.416;23.232;2022-12-07T13:10:42;99826.44;;;7.27;89.61
33697;BME280;20031;43.416;23.232;2022-12-07T13:15:44;99829.56;;;7.31;90.22
33697;BME280;20031;43.416;23.232;2022-12-07T13:24:00;99826.00;;;7.32;90.61
33697;BME280;20031;43.416;23.232;2022-12-07T13:29:18;99832.16;;;7.31;90.14
33697;BME280;20031;43.416;23.232;2022-12-07T13:31:53;99838.94;;;7.32;90.56
33697;BME280;20031;43.416;23.232;2022-12-07T13:34:39;99839.78;;;7.32;90.27
33697;BME280;20031;43.416;23.232;2022-12-07T13:37:21;99836.66;;;7.29;90.32
33697;BME280;20031;43.416;23.232;2022-12-07T13:39:51;99845.66;;;7.25;90.69
33697;BME280;20031;43.416;23.232;2022-12-07T13:42:34;99831.25;;;7.22;90.27
33697;BME280;20031;43.416;23.232;2022-12-07T13:45:20;99828.09;;;7.19;90.83
33697;BME280;20031;43.416;23.232;2022-12-07T13:47:52;99841.03;;;7.19;90.95
33697;BME280;20031;43.416;23.232;2022-12-07T13:50:23;99845.56;;;7.17;91.15
33697;BME280;20031;43.416;23.232;2022-12-07T13:52:49;99847.59;;;7.13;91.11
33697;BME280;20031;43.416;23.232;2022-12-07T13:55:16;99850.63;;;7.09;91.06
33697;BME280;20031;43.416;23.232;2022-12-07T13:57:44;99844.09;;;7.05;91.17
33697;BME280;20031;43.416;23.232;2022-12-07T14:00:17;99846.16;;;7.02;90.85
33697;BME280;20031;43.416;23.232;2022-12-07T14:05:29;99848.19;;;6.98;91.58
33697;BME280;20031;43.416;23.232;2022-12-07T14:08:00;99850.41;;;6.93;90.99
33697;BME280;20031;43.416;23.232;2022-12-07T14:10:40;99849.75;;;6.91;91.39
33697;BME280;20031;43.416;23.232;2022-12-07T14:15:57;99853.84;;;6.84;91.23
33697;BME280;20031;43.416;23.232;2022-12-07T14:18:36;99844.59;;;6.82;91.88
33697;BME280;20031;43.416;23.232;2022-12-07T14:23:32;99837.53;;;6.74;91.75
33697;BME280;20031;43.416;23.232;2022-12-07T14:26:08;99845.56;;;6.71;92.06
33697;BME280;20031;43.416;23.232;2022-12-07T14:28:36;99840.66;;;6.68;92.19
33697;BME280;20031;43.416;23.232;2022-12-07T14:31:02;99843.38;;;6.67;92.37
33697;BME280;20031;43.416;23.232;2022-12-07T14:33:28;99848.81;;;6.64;92.45
33697;BME280;20031;43.416;23.232;2022-12-07T14:35:54;99846.38;;;6.62;92.49
33697;BME280;20031;43.416;23.232;2022-12-07T14:38:24;99841.34;;;6.61;92.65
33697;BME280;20031;43.416;23.232;2022-12-07T14:40:51;99851.16;;;6.58;92.33
33697;BME280;20031;43.416;23.232;2022-12-07T14:43:18;99847.75;;;6.57;92.98
33697;BME280;20031;43.416;23.232;2022-12-07T14:45:44;99853.91;;;6.56;92.45
33697;BME280;20031;43.416;23.232;2022-12-07T14:48:13;99846.28;;;6.55;92.59
33697;BME280;20031;43.416;23.232;2022-12-07T14:50:49;99856.63;;;6.55;92.52
33697;BME280;20031;43.416;23.232;2022-12-07T14:53:17;99860.81;;;6.56;93.13
33697;BME280;20031;43.416;23.232;2022-12-07T14:55:43;99862.31;;;6.58;92.90
33697;BME280;20031;43.416;23.232;2022-12-07T14:58:16;99856.47;;;6.56;92.87
33697;BME280;20031;43.416;23.232;2022-12-07T15:00:43;99862.47;;;6.57;92.89
33697;BME280;20031;43.416;23.232;2022-12-07T15:03:08;99857.28;;;6.57;93.30
33697;BME280;20031;43.416;23.232;2022-12-07T15:05:35;99866.00;;;6.56;93.47
33697;BME280;20031;43.416;23.232;2022-12-07T15:08:00;99865.19;;;6.55;93.10
33697;BME280;20031;43.416;23.232;2022-12-07T15:10:29;99868.59;;;6.56;92.97
33697;BME280;20031;43.416;23.232;2022-12-07T15:12:57;99864.38;;;6.55;93.38
33697;BME280;20031;43.416;23.232;2022-12-07T15:15:41;99864.53;;;6.53;93.03
33697;BME280;20031;43.416;23.232;2022-12-07T15:18:07;99864.66;;;6.52;93.72
33697;BME280;20031;43.416;23.232;2022-12-07T15:20:33;99869.84;;;6.52;93.84
33697;BME280;20031;43.416;23.232;2022-12-07T15:22:58;99870.78;;;6.51;93.28
33697;BME280;20031;43.416;23.232;2022-12-07T15:25:24;99867.50;;;6.49;93.61
33697;BME280;20031;43.416;23.232;2022-12-07T15:27:49;99862.31;;;6.49;93.56
33697;BME280;20031;43.416;23.232;2022-12-07T15:30:15;99864.91;;;6.49;94.01
33697;BME280;20031;43.416;23.232;2022-12-07T15:32:41;99866.97;;;6.45;93.82